createdAt,value
2023-04-04T00:00:15.609Z,4.60
2023-04-04T00:02:43.497Z,4.60
2023-04-04T00:05:11.452Z,4.50
2023-04-04T00:07:39.244Z,4.50
2023-04-04T00:10:08.179Z,4.50
2023-04-04T00:12:37.146Z,4.50
2023-04-04T00:15:05.773Z,4.50
2023-04-04T00:17:35.106Z,4.50
2023-04-04T00:20:04.186Z,4.40
2023-04-04T00:22:32.826Z,4.40
2023-04-04T00:25:01.471Z,4.40
2023-04-04T00:27:29.328Z,4.40
2023-04-04T00:29:57.248Z,4.40
2023-04-04T00:32:25.123Z,4.30
2023-04-04T00:34:57.134Z,4.30
2023-04-04T00:37:25.013Z,4.30
2023-04-04T00:39:52.830Z,4.30
2023-04-04T00:42:20.688Z,4.20
2023-04-04T00:44:48.544Z,4.20
2023-04-04T00:47:16.562Z,4.20
2023-04-04T00:49:46.446Z,4.20
2023-04-04T00:52:15.631Z,4.20
2023-04-04T00:54:43.629Z,4.20
2023-04-04T00:57:11.469Z,4.20
2023-04-04T00:59:39.493Z,4.10
2023-04-04T01:02:07.504Z,4.10
2023-04-04T01:04:35.899Z,4.10
2023-04-04T01:07:04.507Z,4.10
2023-04-04T01:09:34.439Z,4.10
2023-04-04T01:12:03.577Z,4.10
2023-04-04T01:14:31.430Z,4.00
2023-04-04T01:17:04.568Z,4.00
2023-04-04T01:19:36.044Z,4.00
2023-04-04T01:22:04.965Z,4.00
2023-04-04T01:24:35.258Z,4.00
2023-04-04T01:27:04.700Z,4.00
2023-04-04T01:29:32.582Z,4.00
2023-04-04T01:32:05.881Z,4.00
2023-04-04T01:34:42.641Z,4.00
2023-04-04T01:37:17.770Z,4.00
2023-04-04T01:39:50.689Z,3.90
2023-04-04T01:42:21.052Z,3.90
2023-04-04T01:44:49.034Z,3.90
2023-04-04T01:47:16.930Z,3.80
2023-04-04T01:49:45.046Z,3.80
2023-04-04T01:52:12.953Z,3.80
2023-04-04T01:54:40.891Z,3.80
2023-04-04T01:57:08.744Z,3.80
2023-04-04T01:59:37.900Z,3.80
2023-04-04T02:02:05.733Z,3.70
2023-04-04T02:04:34.051Z,3.70
2023-04-04T02:07:02.589Z,3.70
2023-04-04T02:09:30.409Z,3.60
2023-04-04T02:11:58.312Z,3.70
2023-04-04T02:14:26.160Z,3.70
2023-04-04T02:16:55.753Z,3.70
2023-04-04T02:19:24.327Z,3.60
2023-04-04T02:21:52.263Z,3.60
2023-04-04T02:24:20.057Z,3.60
2023-04-04T02:26:48.259Z,3.60
2023-04-04T02:29:16.734Z,3.60
2023-04-04T02:31:44.587Z,3.60
2023-04-04T02:34:13.924Z,3.60
2023-04-04T02:36:42.042Z,3.60
2023-04-04T02:39:09.893Z,3.50
2023-04-04T02:41:37.693Z,3.50
2023-04-04T02:44:05.593Z,3.50
2023-04-04T02:46:34.252Z,3.40
2023-04-04T02:49:02.295Z,3.50
2023-04-04T02:51:33.507Z,3.40
2023-04-04T02:54:03.170Z,3.40
2023-04-04T02:56:32.251Z,3.40
2023-04-04T02:59:00.670Z,3.40
2023-04-04T03:01:28.534Z,3.30
2023-04-04T03:03:56.802Z,3.30
2023-04-04T03:06:24.767Z,3.30
2023-04-04T03:08:54.215Z,3.30
2023-04-04T03:11:22.331Z,3.30
2023-04-04T03:13:51.503Z,3.30
2023-04-04T03:16:20.639Z,3.30
2023-04-04T03:18:48.608Z,3.20
2023-04-04T03:21:16.593Z,3.20
2023-04-04T03:23:44.447Z,3.20
2023-04-04T03:26:13.800Z,3.20
2023-04-04T03:28:41.607Z,3.10
2023-04-04T03:31:09.474Z,3.20
2023-04-04T03:33:37.829Z,3.10
2023-04-04T03:36:11.992Z,3.10
2023-04-04T03:38:40.327Z,3.10
2023-04-04T03:41:08.925Z,3.10
2023-04-04T03:43:38.149Z,3.10
2023-04-04T03:46:07.208Z,3.00
2023-04-04T03:48:35.514Z,3.00
2023-04-04T03:51:04.563Z,2.90
2023-04-04T03:53:32.470Z,2.90
2023-04-04T03:56:01.112Z,2.90
2023-04-04T03:58:30.787Z,2.90
2023-04-04T04:00:59.928Z,2.80
2023-04-04T04:03:28.187Z,2.80
2023-04-04T04:05:56.170Z,2.80
2023-04-04T04:08:25.184Z,2.80
2023-04-04T04:10:53.438Z,2.80
2023-04-04T04:13:21.469Z,2.80
2023-04-04T04:15:49.338Z,2.80
2023-04-04T04:18:18.499Z,2.70
2023-04-04T04:20:46.348Z,2.70
2023-04-04T04:23:14.246Z,2.70
2023-04-04T04:25:42.090Z,2.70
2023-04-04T04:28:09.927Z,2.70
2023-04-04T04:30:37.881Z,2.70
2023-04-04T04:33:06.100Z,2.70
2023-04-04T04:35:37.377Z,2.60
2023-04-04T04:38:05.275Z,2.60
2023-04-04T04:40:33.410Z,2.60
2023-04-04T04:43:02.027Z,2.60
2023-04-04T04:45:29.904Z,2.60
2023-04-04T04:47:57.786Z,2.60
2023-04-04T04:50:25.955Z,2.60
2023-04-04T04:52:55.221Z,2.50
2023-04-04T04:55:23.099Z,2.50
2023-04-04T04:57:52.555Z,2.50
2023-04-04T05:00:22.271Z,2.50
2023-04-04T05:02:50.789Z,2.50
2023-04-04T05:05:18.769Z,2.50
2023-04-04T05:07:47.185Z,2.50
2023-04-04T05:10:16.552Z,2.50
2023-04-04T05:12:44.666Z,2.40
2023-04-04T05:15:12.987Z,2.40
2023-04-04T05:17:41.691Z,2.40
2023-04-04T05:20:10.273Z,2.40
2023-04-04T05:22:38.122Z,2.40
2023-04-04T05:25:06.548Z,2.40
2023-04-04T05:27:35.995Z,2.40
2023-04-04T05:30:03.943Z,2.40
2023-04-04T05:32:31.790Z,2.40
2023-04-04T05:34:59.735Z,2.30
2023-04-04T05:37:27.698Z,2.30
2023-04-04T05:39:56.071Z,2.30
2023-04-04T05:42:23.970Z,2.30
2023-04-04T05:44:53.232Z,2.30
2023-04-04T05:47:21.954Z,2.30
2023-04-04T05:49:50.043Z,2.30
2023-04-04T05:52:17.868Z,2.30
2023-04-04T05:54:46.018Z,2.30
2023-04-04T05:57:13.831Z,2.30
2023-04-04T05:59:41.709Z,2.30
2023-04-04T06:02:10.905Z,2.30
2023-04-04T06:04:40.917Z,2.30
2023-04-04T06:07:08.848Z,2.30
2023-04-04T06:09:36.680Z,2.30
2023-04-04T06:12:04.911Z,2.30
2023-04-04T06:14:32.711Z,2.40
2023-04-04T06:17:01.139Z,2.30
2023-04-04T06:19:30.391Z,2.30
2023-04-04T06:21:58.443Z,2.30
2023-04-04T06:24:26.253Z,2.40
2023-04-04T06:26:54.386Z,2.40
2023-04-04T06:29:22.556Z,2.40
2023-04-04T06:31:50.942Z,2.40
2023-04-04T06:34:18.846Z,2.40
2023-04-04T06:36:47.983Z,2.40
2023-04-04T06:39:16.197Z,2.40
2023-04-04T06:41:44.065Z,2.40
2023-04-04T06:44:12.100Z,2.40
2023-04-04T06:46:40.205Z,2.40
2023-04-04T06:49:08.276Z,2.40
2023-04-04T06:51:36.427Z,2.40
2023-04-04T06:54:05.597Z,2.40
2023-04-04T06:56:33.426Z,2.40
2023-04-04T06:59:01.904Z,2.50
2023-04-04T07:01:29.916Z,2.50
2023-04-04T07:03:57.816Z,2.40
2023-04-04T07:06:29.699Z,2.40
2023-04-04T07:08:57.618Z,2.50
2023-04-04T07:11:27.102Z,2.50
2023-04-04T07:13:55.076Z,2.50
2023-04-04T07:16:22.940Z,2.50
2023-04-04T07:18:50.863Z,2.50
2023-04-04T07:21:20.477Z,2.50
2023-04-04T07:23:48.310Z,2.50
2023-04-04T07:26:16.168Z,2.60
2023-04-04T07:28:45.354Z,2.60
2023-04-04T07:31:14.816Z,2.60
2023-04-04T07:33:42.678Z,2.60
2023-04-04T07:36:10.882Z,2.60
2023-04-04T07:38:38.803Z,2.70
2023-04-04T07:41:06.913Z,2.70
2023-04-04T07:43:35.052Z,2.70
2023-04-04T07:46:04.455Z,2.70
2023-04-04T07:48:32.344Z,2.70
2023-04-04T07:51:02.983Z,2.80
2023-04-04T07:53:30.895Z,2.80
2023-04-04T07:55:58.803Z,2.80
2023-04-04T07:58:27.085Z,2.90
2023-04-04T08:00:55.101Z,2.90
2023-04-04T08:03:25.774Z,2.90
2023-04-04T08:05:53.844Z,2.90
2023-04-04T08:08:22.003Z,3.00
2023-04-04T08:10:50.361Z,3.00
2023-04-04T08:13:18.502Z,3.00
2023-04-04T08:15:47.209Z,3.10
2023-04-04T08:18:15.429Z,3.10
2023-04-04T08:20:44.974Z,3.10
2023-04-04T08:23:13.120Z,3.20
2023-04-04T08:25:40.998Z,3.20
2023-04-04T08:28:08.808Z,3.20
2023-04-04T08:30:36.608Z,3.30
2023-04-04T08:33:06.215Z,3.30
2023-04-04T08:35:34.274Z,3.30
2023-04-04T08:38:06.128Z,3.40
2023-04-04T08:40:36.570Z,3.40
2023-04-04T08:43:05.698Z,3.50
2023-04-04T08:45:34.765Z,3.50
2023-04-04T08:48:04.031Z,3.50
2023-04-04T08:50:32.666Z,3.50
2023-04-04T08:53:03.063Z,3.60
2023-04-04T08:55:32.606Z,3.70
2023-04-04T08:58:00.876Z,3.70
2023-04-04T09:00:29.722Z,3.80
2023-04-04T09:03:02.300Z,3.80
2023-04-04T09:05:33.184Z,3.80
2023-04-04T09:08:01.862Z,3.80
2023-04-04T09:10:29.796Z,3.80
2023-04-04T09:13:12.611Z,3.90
2023-04-04T09:15:47.646Z,3.90
2023-04-04T09:18:15.547Z,4.00
2023-04-04T09:20:44.774Z,4.00
2023-04-04T09:23:14.338Z,4.00
2023-04-04T09:25:56.319Z,4.10
2023-04-04T09:28:33.094Z,4.10
2023-04-04T09:31:02.986Z,4.10
2023-04-04T09:33:34.128Z,4.20
2023-04-04T09:36:03.691Z,4.20
2023-04-04T09:38:32.249Z,4.30
2023-04-04T09:41:00.833Z,4.30
2023-04-04T09:43:31.000Z,4.30
2023-04-04T09:46:02.344Z,4.40
2023-04-04T09:48:32.594Z,4.40
2023-04-04T09:51:00.851Z,4.40
2023-04-04T09:53:28.852Z,4.50
2023-04-04T09:55:58.293Z,4.50
2023-04-04T09:58:28.322Z,4.50
2023-04-04T10:00:58.536Z,4.60
2023-04-04T10:03:28.643Z,4.60
2023-04-04T10:05:58.820Z,4.60
2023-04-04T10:08:29.286Z,4.70
2023-04-04T10:11:09.710Z,4.70
2023-04-04T10:13:41.471Z,4.70
2023-04-04T10:16:11.188Z,4.80
2023-04-04T10:18:41.214Z,4.80
2023-04-04T10:23:43.781Z,4.90
2023-04-04T10:26:12.844Z,5.00
2023-04-04T10:28:42.295Z,5.10
2023-04-04T10:31:17.249Z,5.10
2023-04-04T10:33:51.749Z,5.10
2023-04-04T10:36:23.871Z,5.20
2023-04-04T10:39:01.129Z,5.30
2023-04-04T10:41:32.444Z,5.30
2023-04-04T10:44:07.900Z,5.30
2023-04-04T10:46:38.307Z,5.40
2023-04-04T10:49:07.506Z,5.40
2023-04-04T10:51:45.243Z,5.40
2023-04-04T10:54:21.735Z,5.50
2023-04-04T10:56:50.396Z,5.60
2023-04-04T10:59:18.479Z,5.70
2023-04-04T11:01:51.175Z,5.70
2023-04-04T11:04:32.036Z,5.70
2023-04-04T11:07:10.620Z,5.70
2023-04-04T11:09:52.432Z,5.80
2023-04-04T11:12:33.231Z,5.80
2023-04-04T11:15:10.618Z,5.80
2023-04-04T11:18:21.425Z,5.90
2023-04-04T11:20:56.085Z,5.90
2023-04-04T11:23:24.378Z,5.90
2023-04-04T11:25:53.421Z,6.00
2023-04-04T11:28:29.500Z,6.10
2023-04-04T11:31:28.845Z,6.10
2023-04-04T11:33:59.713Z,6.20
2023-04-04T11:36:56.073Z,6.30
2023-04-04T11:39:28.447Z,6.30
2023-04-04T11:41:58.760Z,6.40
2023-04-04T11:44:30.587Z,6.40
2023-04-04T11:47:04.139Z,6.50
2023-04-04T11:49:36.109Z,6.60
2023-04-04T11:52:08.877Z,6.60
2023-04-04T11:54:38.744Z,6.70
2023-04-04T11:57:07.460Z,6.70
2023-04-04T11:59:40.515Z,6.80
2023-04-04T12:02:09.426Z,6.80
2023-04-04T12:04:39.824Z,6.90
2023-04-04T12:07:10.742Z,6.90
2023-04-04T12:09:39.774Z,7.00
2023-04-04T12:12:08.347Z,7.00
2023-04-04T12:14:39.976Z,7.10
2023-04-04T12:17:07.842Z,7.10
2023-04-04T12:19:38.545Z,7.10
2023-04-04T12:22:07.996Z,7.20
2023-04-04T12:24:37.837Z,7.30
2023-04-04T12:27:06.714Z,7.30
2023-04-04T12:29:36.245Z,7.40
2023-04-04T12:32:07.472Z,7.50
2023-04-04T12:34:36.311Z,7.60
2023-04-04T12:37:04.753Z,7.60
2023-04-04T12:39:32.854Z,7.60
2023-04-04T12:42:04.496Z,7.70
2023-04-04T12:44:35.335Z,7.70
2023-04-04T12:47:05.635Z,7.80
2023-04-04T12:49:40.549Z,7.80
2023-04-04T12:52:17.124Z,7.90
2023-04-04T12:54:48.680Z,7.90
2023-04-04T12:57:22.052Z,8.10
2023-04-04T12:59:50.009Z,8.10
2023-04-04T13:02:20.482Z,8.10
2023-04-04T13:04:49.675Z,8.10
2023-04-04T13:07:25.729Z,8.20
2023-04-04T13:09:54.982Z,8.20
2023-04-04T13:12:27.647Z,8.30
2023-04-04T13:15:02.665Z,8.30
2023-04-04T13:17:47.135Z,8.40
2023-04-04T13:20:16.477Z,8.40
2023-04-04T13:22:44.630Z,8.50
2023-04-04T13:25:13.499Z,8.50
2023-04-04T13:27:42.831Z,8.50
2023-04-04T13:30:11.654Z,8.60
2023-04-04T13:32:39.684Z,8.60
2023-04-04T13:35:08.453Z,8.60
2023-04-04T13:37:36.286Z,8.70
2023-04-04T13:40:04.476Z,8.70
2023-04-04T13:42:32.369Z,8.70
2023-04-04T13:45:02.123Z,8.80
2023-04-04T13:47:29.972Z,8.90
2023-04-04T13:49:57.882Z,8.90
2023-04-04T13:52:25.865Z,8.90
2023-04-04T13:54:55.026Z,8.90
2023-04-04T13:57:22.928Z,9.00
2023-04-04T13:59:50.804Z,9.00
2023-04-04T14:02:19.998Z,9.10
2023-04-04T14:04:47.993Z,9.10
2023-04-04T14:07:17.558Z,9.10
2023-04-04T14:09:45.587Z,9.20
2023-04-04T14:14:42.232Z,9.30
2023-04-04T14:17:10.099Z,9.40
2023-04-04T14:19:40.419Z,9.50
2023-04-04T14:22:08.326Z,9.50
2023-04-04T14:24:36.217Z,9.60
2023-04-04T14:27:04.040Z,9.70
2023-04-04T14:29:31.842Z,9.80
2023-04-04T14:32:00.120Z,9.80
2023-04-04T14:34:27.971Z,9.80
2023-04-04T14:36:57.402Z,9.90
2023-04-04T14:39:25.299Z,10.00
2023-04-04T14:41:53.201Z,10.10
2023-04-04T14:44:21.883Z,10.20
2023-04-04T14:46:52.299Z,10.30
2023-04-04T14:49:20.581Z,10.30
2023-04-04T14:51:48.443Z,10.30
2023-04-04T14:54:17.651Z,10.50
2023-04-04T14:56:45.624Z,10.40
2023-04-04T14:59:13.969Z,10.40
2023-04-04T15:01:42.080Z,10.40
2023-04-04T15:04:11.705Z,10.50
2023-04-04T15:06:39.673Z,10.60
2023-04-04T15:09:08.039Z,10.80
2023-04-04T15:11:37.290Z,10.70
2023-04-04T15:14:06.058Z,10.80
2023-04-04T15:16:35.259Z,10.80
2023-04-04T15:19:03.695Z,10.70
2023-04-04T15:21:31.758Z,10.90
2023-04-04T15:23:59.718Z,11.00
2023-04-04T15:26:27.575Z,11.10
2023-04-04T15:28:56.745Z,11.10
2023-04-04T15:31:26.230Z,11.10
2023-04-04T15:33:55.125Z,11.00
2023-04-04T15:36:26.388Z,11.00
2023-04-04T15:38:54.376Z,11.10
2023-04-04T15:41:22.968Z,11.10
2023-04-04T15:43:50.799Z,11.20
2023-04-04T15:46:20.098Z,11.10
2023-04-04T15:48:48.432Z,11.00
2023-04-04T15:51:16.300Z,11.00
2023-04-04T15:53:44.171Z,11.10
2023-04-04T15:56:13.516Z,11.10
2023-04-04T15:58:41.550Z,11.00
2023-04-04T16:01:12.840Z,11.00
2023-04-04T16:03:42.797Z,11.00
2023-04-04T16:06:13.033Z,10.90
2023-04-04T16:08:41.269Z,10.90
2023-04-04T16:11:09.296Z,10.90
2023-04-04T16:13:37.119Z,10.80
2023-04-04T16:16:05.073Z,10.80
2023-04-04T16:18:35.459Z,10.80
2023-04-04T16:21:05.423Z,10.90
2023-04-04T16:23:33.547Z,10.90
2023-04-04T16:26:01.946Z,10.80
2023-04-04T16:28:29.825Z,10.80
2023-04-04T16:31:00.832Z,10.80
2023-04-04T16:33:28.685Z,10.80
2023-04-04T16:35:56.558Z,10.70
2023-04-04T16:38:25.725Z,10.60
2023-04-04T16:40:53.589Z,10.60
2023-04-04T16:43:21.407Z,10.60
2023-04-04T16:45:49.298Z,10.70
2023-04-04T16:48:17.248Z,10.60
2023-04-04T16:50:45.161Z,10.60
2023-04-04T16:53:12.995Z,10.60
2023-04-04T16:55:42.185Z,10.50
2023-04-04T16:58:12.826Z,10.50
2023-04-04T17:00:41.234Z,10.50
2023-04-04T17:03:09.413Z,10.50
2023-04-04T17:05:37.298Z,10.40
2023-04-04T17:08:05.168Z,10.40
2023-04-04T17:10:34.643Z,10.20
2023-04-04T17:13:05.741Z,10.20
2023-04-04T17:15:33.823Z,10.10
2023-04-04T17:18:02.485Z,10.10
2023-04-04T17:20:31.534Z,10.10
2023-04-04T17:23:00.825Z,10.00
2023-04-04T17:25:31.196Z,10.00
2023-04-04T17:27:58.968Z,10.00
2023-04-04T17:30:28.206Z,9.90
2023-04-04T17:32:57.096Z,9.80
2023-04-04T17:35:25.268Z,9.80
2023-04-04T17:37:53.145Z,9.80
2023-04-04T17:40:21.368Z,9.70
2023-04-04T17:42:49.342Z,9.70
2023-04-04T17:45:17.887Z,9.60
2023-04-04T17:47:47.121Z,9.60
2023-04-04T17:50:15.843Z,9.60
2023-04-04T17:52:43.914Z,9.50
2023-04-04T17:55:12.697Z,9.50
2023-04-04T17:57:40.996Z,9.40
2023-04-04T18:00:10.899Z,9.40
2023-04-04T18:02:38.881Z,9.30
2023-04-04T18:05:10.090Z,9.30
2023-04-04T18:07:37.790Z,9.20
2023-04-04T18:10:06.832Z,9.20
2023-04-04T18:12:36.056Z,9.20
2023-04-04T18:15:04.804Z,9.10
2023-04-04T18:17:33.369Z,9.10
2023-04-04T18:20:03.845Z,9.00
2023-04-04T18:22:34.080Z,9.00
2023-04-04T18:25:02.261Z,8.90
2023-04-04T18:27:31.026Z,8.90
2023-04-04T18:29:58.835Z,8.90
2023-04-04T18:32:28.353Z,8.80
2023-04-04T18:34:56.376Z,8.80
2023-04-04T18:37:24.181Z,8.80
2023-04-04T18:39:53.315Z,8.70
2023-04-04T18:42:21.359Z,8.70
2023-04-04T18:44:49.209Z,8.70
2023-04-04T18:47:16.994Z,8.60
2023-04-04T18:49:44.952Z,8.60
2023-04-04T18:52:12.807Z,8.60
2023-04-04T18:54:45.027Z,8.50
2023-04-04T18:57:14.706Z,8.50
2023-04-04T18:59:42.558Z,8.50
2023-04-04T19:02:10.604Z,8.40
2023-04-04T19:04:41.892Z,8.40
2023-04-04T19:07:11.902Z,8.40
2023-04-04T19:09:41.141Z,8.30
2023-04-04T19:12:09.004Z,8.30
2023-04-04T19:14:38.200Z,8.30
2023-04-04T19:17:06.012Z,8.20
2023-04-04T19:19:33.861Z,8.20
2023-04-04T19:22:01.989Z,8.10
2023-04-04T19:24:29.868Z,8.10
2023-04-04T19:26:57.770Z,8.10
2023-04-04T19:29:25.570Z,8.00
2023-04-04T19:31:56.012Z,8.00
2023-04-04T19:34:23.883Z,7.90
2023-04-04T19:36:51.687Z,7.90
2023-04-04T19:39:23.037Z,7.90
2023-04-04T19:41:50.826Z,7.80
2023-04-04T19:44:20.806Z,7.80
2023-04-04T19:46:49.171Z,7.70
2023-04-04T19:49:19.159Z,7.70
2023-04-04T19:51:51.692Z,7.60
2023-04-04T19:54:26.239Z,7.60
2023-04-04T19:57:00.983Z,7.60
2023-04-04T19:59:58.568Z,7.50
2023-04-04T20:02:54.611Z,7.40
2023-04-04T20:05:55.859Z,7.40
2023-04-04T20:08:23.913Z,7.30
2023-04-04T20:10:54.867Z,7.30
2023-04-04T20:13:23.048Z,7.30
2023-04-04T20:16:01.333Z,7.20
2023-04-04T20:18:31.846Z,7.20
2023-04-04T20:21:10.180Z,7.10
2023-04-04T20:23:52.439Z,7.10
2023-04-04T20:26:48.285Z,7.00
2023-04-04T20:29:17.405Z,7.00
2023-04-04T20:31:47.161Z,7.00
2023-04-04T20:34:33.310Z,6.90
2023-04-04T20:37:06.901Z,6.90
2023-04-04T20:39:38.740Z,6.80
2023-04-04T20:42:28.473Z,6.80
2023-04-04T20:44:57.320Z,6.80
2023-04-04T20:47:41.809Z,6.80
2023-04-04T20:50:36.236Z,6.70
2023-04-04T20:53:07.058Z,6.70
2023-04-04T20:55:36.218Z,6.70
2023-04-04T20:58:10.621Z,6.60
2023-04-04T21:00:42.987Z,6.60
2023-04-04T21:03:12.355Z,6.60
2023-04-04T21:05:41.639Z,6.50
2023-04-04T21:08:37.450Z,6.50
2023-04-04T21:11:06.739Z,6.50
2023-04-04T21:13:37.614Z,6.40
2023-04-04T21:16:08.898Z,6.40
2023-04-04T21:18:37.718Z,6.40
2023-04-04T21:21:18.517Z,6.40
2023-04-04T21:23:53.215Z,6.30
2023-04-04T21:26:32.908Z,6.30
2023-04-04T21:29:02.657Z,6.30
2023-04-04T21:31:36.029Z,6.20
2023-04-04T21:34:10.487Z,6.20
2023-04-04T21:36:38.557Z,6.20
2023-04-04T21:39:11.786Z,6.10
2023-04-04T21:41:40.326Z,6.10
2023-04-04T21:44:10.659Z,6.10
2023-04-04T21:46:40.107Z,6.10
2023-04-04T21:49:09.210Z,6.00
2023-04-04T21:51:37.603Z,6.00
2023-04-04T21:54:05.578Z,6.00
2023-04-04T21:56:34.804Z,6.00
2023-04-04T21:59:04.658Z,5.90
2023-04-04T22:01:34.970Z,5.90
2023-04-04T22:04:06.224Z,5.80
2023-04-04T22:06:33.938Z,5.80
2023-04-04T22:09:03.053Z,5.80
2023-04-04T22:11:31.235Z,5.80
2023-04-04T22:14:04.491Z,5.80
2023-04-04T22:16:36.736Z,5.70
2023-04-04T22:19:05.053Z,5.70
2023-04-04T22:21:36.573Z,5.70
2023-04-04T22:24:06.150Z,5.70
2023-04-04T22:26:34.396Z,5.70
2023-04-04T22:29:05.437Z,5.60
2023-04-04T22:31:34.847Z,5.60
2023-04-04T22:34:03.953Z,5.60
2023-04-04T22:36:34.293Z,5.60
2023-04-04T22:39:02.774Z,5.60
2023-04-04T22:41:30.754Z,5.50
2023-04-04T22:43:58.700Z,5.50
2023-04-04T22:46:29.469Z,5.50
2023-04-04T22:49:05.399Z,5.50
2023-04-04T22:51:44.786Z,5.50
2023-04-04T22:54:14.115Z,5.50
2023-04-04T22:56:42.073Z,5.40
2023-04-04T22:59:10.032Z,5.40
2023-04-04T23:01:39.430Z,5.40
2023-04-04T23:04:07.415Z,5.40
2023-04-04T23:06:35.783Z,5.30
2023-04-04T23:09:03.759Z,5.30
2023-04-04T23:11:31.616Z,5.30
2023-04-04T23:14:00.613Z,5.30
2023-04-04T23:16:28.822Z,5.20
2023-04-04T23:18:58.120Z,5.20
2023-04-04T23:21:26.077Z,5.20
2023-04-04T23:23:53.902Z,5.20
2023-04-04T23:26:21.740Z,5.20
2023-04-04T23:28:51.550Z,5.10
2023-04-04T23:31:20.322Z,5.10
2023-04-04T23:33:48.192Z,5.10
2023-04-04T23:36:20.672Z,5.10
2023-04-04T23:38:48.464Z,5.10
2023-04-04T23:41:18.061Z,5.00
2023-04-04T23:43:46.027Z,5.00
2023-04-04T23:46:14.436Z,5.00
2023-04-04T23:48:42.700Z,4.90
2023-04-04T23:51:10.891Z,4.90
2023-04-04T23:53:40.421Z,4.90
2023-04-04T23:56:08.875Z,4.90
2023-04-04T23:58:38.037Z,4.90
